Airfield :
LOGIN :

Register | Disclaimer

   EN    FR    IT 

 










Legend :    VFR   Marginal VFR   IFR   Intensive IFR   Very Intensive IFR
Visi :
Ceiling :
>= 8 km
>= 3000ft
5 to 8 km
1000 to 3000 ft
1500m to 5 km
500 to 1000 ft
800 to 1500m
200 to 500 ft
< 800m
< 200 ft
Symbols :   Thunderstorms  Fog  Heavy snow  Heavy precipitations  Wind > 20 kt
SIGMETs :     Misc.  Thunderstorms  Icing  Turbulence  Mountain Waves  Volcanic Ashes






- Airport Elevation : 102 ft
- IATA code : CNG


LFBG - Cognac

CURRENT METAR :
  • 122030Z AUTO VRB02KT 9999 BKN046 BKN058 08/06 Q1007

EXPIRED METARs :
  • 122000Z AUTO 29002KT 9999 FEW047 OVC062 08/07 Q1007
  • 121930Z AUTO 32003KT 9999 FEW041 OVC064 08/07 Q1007
  • 121900Z AUTO 34003KT 9999 FEW029 BKN062 08/07 Q1007
  • 121830Z AUTO 00000KT 9999 SCT035 BKN042 BKN049 09/08 Q1007
  • 121800Z AUTO 00000KT 9999 FEW032 SCT044 BKN060 09/07 Q1007

TAF TAF LFBG
Valid from the 12 at 15:00 until the 13 at 15:00 UTC


121400Z 1215/1315 27006KT 9999 SCT040 SCT060
TEMPO 1215/1219 4000 -SHRA BKN030TCU
BECMG 1222/1224 VRB02KT 2000 BR BKN002
PROB40
TEMPO 1300/1307 0500 FG VV///
BECMG 1310/1312 18006KT 9999 NSW SCT025



MET'MAP, your aeronautical weather chart ! - Copyright ORBIFLY December 2007 - Disclaimer

ORBIFLY MET'MAP TEAM :

Programming & Development : Alexandra Zaïnal
Concept & Development : Baudouin d'Aumeries
Co-Development & Prog : Marc-Olivier Méhu
Technical & hardware support : Manuel Goepfert

Contact : metmap@orbifly.com




SOURCES & CREDITS :

   NOAA